Willow Grove, Texas
Current Conditions -  °F | °C
As of 2:15 PM on Thursday 23 Oct 2014 (Local Time) from KTPL Reporting Station
Clear Clear  
Wind Chill: 25°   Ceiling: Unl
Heat Index: 26°   Visibility: 10mi
Dew Point: 13°   Wind: 3mph
Humidity: 47%   Direction: 220°SW
Pressure: 30.1"   Gusts: NA
Location:  31.2688°N, 97.3985°W
Report Text: KTPL 231915Z AUTO 22003KT 10SM CLR 25/13 A3010 RMK AO1
Loading
Personal Weather Stations






























Interactive Weather Map
Tropical Storm Tracking
New forecast layout! Learn more

10-Day Weather Forecast

Advertisements
Track Severe Weather on mobile